createdAt,value
2018-12-09T00:00:44.180Z,97515.00
2018-12-09T00:03:11.195Z,97512.00
2018-12-09T00:05:38.296Z,97505.00
2018-12-09T00:08:05.315Z,97494.00
2018-12-09T00:10:32.435Z,97509.00
2018-12-09T00:12:59.516Z,97517.00
2018-12-09T00:15:26.496Z,97486.00
2018-12-09T00:17:53.556Z,97517.00
2018-12-09T00:20:20.716Z,97513.00
2018-12-09T00:22:47.736Z,97500.00
2018-12-09T00:25:14.955Z,97493.00
2018-12-09T00:27:41.996Z,97487.00
2018-12-09T00:30:09.068Z,97474.00
2018-12-09T00:32:36.515Z,97469.00
2018-12-09T00:35:04.355Z,97462.00
2018-12-09T00:37:31.495Z,97460.00
2018-12-09T00:39:58.475Z,97454.00
2018-12-09T00:42:25.415Z,97462.00
2018-12-09T00:44:52.496Z,97459.00
2018-12-09T00:47:19.515Z,97459.00
2018-12-09T00:49:46.535Z,97453.00
2018-12-09T00:52:13.495Z,97461.00
2018-12-09T00:54:40.655Z,97462.00
2018-12-09T00:57:07.675Z,97480.00
2018-12-09T00:59:34.759Z,97483.00
2018-12-09T01:02:03.816Z,97482.00
2018-12-09T01:04:30.856Z,97451.00
2018-12-09T01:06:57.876Z,97444.00
2018-12-09T01:09:24.875Z,97411.00
2018-12-09T01:11:52.316Z,97417.00
2018-12-09T01:14:26.156Z,97414.00
2018-12-09T01:16:53.156Z,97409.00
2018-12-09T01:19:20.155Z,97417.00
2018-12-09T01:21:47.156Z,97413.00
2018-12-09T01:24:21.296Z,97413.00
2018-12-09T01:26:48.615Z,97409.00
2018-12-09T01:29:15.636Z,97402.00
2018-12-09T01:31:42.695Z,97392.00
2018-12-09T01:34:10.076Z,97387.00
2018-12-09T01:36:37.187Z,97376.00
2018-12-09T01:39:05.118Z,97370.00
2018-12-09T01:41:32.096Z,97379.00
2018-12-09T01:43:59.136Z,97371.00
2018-12-09T01:46:26.176Z,97378.00
2018-12-09T01:49:00.196Z,97381.00
2018-12-09T01:51:27.216Z,97395.00
2018-12-09T01:54:07.457Z,97386.00
2018-12-09T01:56:34.436Z,97390.00
2018-12-09T01:59:01.437Z,97371.00
2018-12-09T02:01:28.515Z,97362.00
2018-12-09T02:03:55.516Z,97366.00
2018-12-09T02:06:22.556Z,97354.00
2018-12-09T02:08:49.620Z,97359.00
2018-12-09T02:11:23.616Z,97357.00
2018-12-09T02:13:50.637Z,97344.00
2018-12-09T02:16:17.656Z,97348.00
2018-12-09T02:18:47.996Z,97334.00
2018-12-09T02:21:15.017Z,97315.00
2018-12-09T02:23:48.835Z,97307.00
2018-12-09T02:26:22.756Z,97290.00
2018-12-09T02:28:50.635Z,97274.00
2018-12-09T02:31:17.676Z,97266.00
2018-12-09T02:33:44.636Z,97252.00
2018-12-09T02:36:11.676Z,97231.00
2018-12-09T02:38:38.715Z,97229.00
2018-12-09T02:41:05.696Z,97226.00
2018-12-09T02:43:32.855Z,97215.00
2018-12-09T02:45:59.916Z,97215.00
2018-12-09T02:48:26.896Z,97210.00
2018-12-09T02:51:00.875Z,97206.00
2018-12-09T02:53:27.916Z,97200.00
2018-12-09T02:55:54.935Z,97207.00
2018-12-09T02:58:21.921Z,97189.00
2018-12-09T03:00:49.116Z,97185.00
2018-12-09T03:03:16.676Z,97174.00
2018-12-09T03:05:43.897Z,97176.00
2018-12-09T03:08:17.878Z,97161.00
2018-12-09T03:10:45.299Z,97174.00
2018-12-09T03:13:12.296Z,97157.00
2018-12-09T03:15:39.297Z,97149.00
2018-12-09T03:18:06.443Z,97157.00
2018-12-09T03:20:33.516Z,97169.00
2018-12-09T03:23:00.556Z,97161.00
2018-12-09T03:25:34.536Z,97170.00
2018-12-09T03:28:01.577Z,97144.00
2018-12-09T03:30:28.618Z,97150.00
2018-12-09T03:32:55.617Z,97153.00
2018-12-09T03:35:22.617Z,97143.00
2018-12-09T03:37:49.855Z,97149.00
2018-12-09T03:40:16.857Z,97142.00
2018-12-09T03:42:43.896Z,97144.00
2018-12-09T03:45:10.876Z,97137.00
2018-12-09T03:47:44.997Z,97114.00
2018-12-09T03:50:12.458Z,97109.00
2018-12-09T03:52:39.476Z,97114.00
2018-12-09T03:55:06.677Z,97118.00
2018-12-09T03:57:33.735Z,97108.00
2018-12-09T04:00:00.756Z,97116.00
2018-12-09T04:02:28.295Z,97109.00
2018-12-09T04:04:55.291Z,97101.00
2018-12-09T04:07:22.250Z,97089.00
2018-12-09T04:09:49.260Z,97085.00
2018-12-09T04:12:16.190Z,97077.00
2018-12-09T04:14:43.530Z,97072.00
2018-12-09T04:17:10.530Z,97077.00
2018-12-09T04:19:37.470Z,97082.00
2018-12-09T04:22:04.470Z,97080.00
2018-12-09T04:24:31.430Z,97081.00
2018-12-09T04:26:58.249Z,97064.00
2018-12-09T04:29:25.252Z,97056.00
2018-12-09T04:31:52.252Z,97061.00
2018-12-09T04:34:19.273Z,97055.00
2018-12-09T04:36:46.254Z,97057.00
2018-12-09T04:39:13.372Z,97046.00
2018-12-09T04:41:40.393Z,97042.00
2018-12-09T04:44:07.432Z,97047.00
2018-12-09T04:46:34.392Z,97034.00
2018-12-09T04:49:01.456Z,97046.00
2018-12-09T04:51:39.332Z,97033.00
2018-12-09T04:54:06.374Z,97033.00
2018-12-09T04:56:33.412Z,97035.00
2018-12-09T04:59:14.252Z,97026.00
2018-12-09T05:01:41.812Z,97029.00
2018-12-09T05:04:09.012Z,97029.00
2018-12-09T05:06:36.072Z,97030.00
2018-12-09T05:09:04.373Z,97033.00
2018-12-09T05:11:31.392Z,97020.00
2018-12-09T05:14:05.357Z,97024.00
2018-12-09T05:16:32.413Z,97028.00
2018-12-09T05:18:59.474Z,97032.00
2018-12-09T05:21:26.652Z,97037.00
2018-12-09T05:24:00.652Z,97043.00
2018-12-09T05:26:27.654Z,97043.00
2018-12-09T05:28:54.732Z,97064.00
2018-12-09T05:31:21.656Z,97043.00
2018-12-09T05:33:49.333Z,97063.00
2018-12-09T05:36:16.296Z,97066.00
2018-12-09T05:38:43.692Z,97064.00
2018-12-09T05:41:10.717Z,97045.00
2018-12-09T05:43:37.792Z,97046.00
2018-12-09T05:46:04.932Z,97048.00
2018-12-09T05:48:38.912Z,97050.00
2018-12-09T05:51:05.933Z,97037.00
2018-12-09T05:53:32.991Z,97036.00
2018-12-09T05:56:00.032Z,97047.00
2018-12-09T05:58:27.011Z,97042.00
2018-12-09T06:00:54.091Z,97051.00
2018-12-09T06:03:21.673Z,97058.00
2018-12-09T06:05:55.592Z,97051.00
2018-12-09T06:08:22.692Z,97045.00
2018-12-09T06:10:49.694Z,97046.00
2018-12-09T06:13:16.773Z,97063.00
2018-12-09T06:15:43.774Z,97093.00
2018-12-09T06:18:10.752Z,97114.00
2018-12-09T06:20:37.912Z,97130.00
2018-12-09T06:23:04.933Z,97114.00
2018-12-09T06:25:31.912Z,97117.00
2018-12-09T06:27:59.837Z,97112.00
2018-12-09T06:30:26.938Z,97107.00
2018-12-09T06:32:53.906Z,97126.00
2018-12-09T06:35:20.892Z,97136.00
2018-12-09T06:37:47.952Z,97130.00
2018-12-09T06:40:15.033Z,97149.00
2018-12-09T06:42:42.113Z,97149.00
2018-12-09T06:45:09.213Z,97156.00
2018-12-09T06:47:36.092Z,97146.00
2018-12-09T06:50:04.231Z,97130.00
2018-12-09T06:52:31.313Z,97143.00
2018-12-09T06:54:58.353Z,97139.00
2018-12-09T06:57:25.273Z,97140.00
2018-12-09T06:59:52.655Z,97143.00
2018-12-09T07:02:19.733Z,97151.00
2018-12-09T07:04:46.753Z,97159.00
2018-12-09T07:07:13.574Z,97169.00
2018-12-09T07:09:40.913Z,97163.00
2018-12-09T07:12:07.953Z,97178.00
2018-12-09T07:14:34.955Z,97166.00
2018-12-09T07:17:02.455Z,97163.00
2018-12-09T07:19:29.394Z,97161.00
2018-12-09T07:21:57.093Z,97159.00
2018-12-09T07:24:24.114Z,97152.00
2018-12-09T07:26:51.214Z,97136.00
2018-12-09T07:29:18.234Z,97133.00
2018-12-09T07:31:45.193Z,97148.00
2018-12-09T07:34:12.214Z,97143.00
2018-12-09T07:36:39.213Z,97146.00
2018-12-09T07:39:06.634Z,97152.00
2018-12-09T07:41:33.594Z,97156.00
2018-12-09T07:44:00.649Z,97157.00
2018-12-09T07:46:27.653Z,97156.00
2018-12-09T07:48:55.093Z,97152.00
2018-12-09T07:51:22.133Z,97175.00
2018-12-09T07:53:49.074Z,97183.00
2018-12-09T07:56:16.533Z,97189.00
2018-12-09T07:58:43.453Z,97197.00
2018-12-09T08:01:10.454Z,97198.00
2018-12-09T08:03:38.074Z,97210.00
2018-12-09T08:06:05.654Z,97212.00
2018-12-09T08:08:32.753Z,97216.00
2018-12-09T08:10:59.803Z,97219.00
2018-12-09T08:13:26.763Z,97224.00
2018-12-09T08:15:53.743Z,97224.00
2018-12-09T08:18:20.693Z,97227.00
2018-12-09T08:20:48.274Z,97225.00
2018-12-09T08:23:15.115Z,97242.00
2018-12-09T08:25:41.965Z,97232.00
2018-12-09T08:28:09.039Z,97227.00
2018-12-09T08:30:43.056Z,97233.00
2018-12-09T08:33:10.066Z,97241.00
2018-12-09T08:35:37.103Z,97246.00
2018-12-09T08:38:04.141Z,97232.00
2018-12-09T08:40:31.073Z,97245.00
2018-12-09T08:43:05.024Z,97249.00
2018-12-09T08:45:32.059Z,97247.00
2018-12-09T08:47:58.887Z,97253.00
2018-12-09T08:50:25.766Z,97264.00
2018-12-09T08:52:52.714Z,97261.00
2018-12-09T08:55:19.750Z,97249.00
2018-12-09T08:57:46.985Z,97260.00
2018-12-09T09:00:14.074Z,97267.00
2018-12-09T09:02:41.169Z,97278.00
2018-12-09T09:05:08.209Z,97279.00
2018-12-09T09:07:35.269Z,97285.00
2018-12-09T09:10:02.188Z,97280.00
2018-12-09T09:12:29.249Z,97285.00
2018-12-09T09:14:56.271Z,97288.00
2018-12-09T09:17:23.230Z,97288.00
2018-12-09T09:19:50.189Z,97285.00
2018-12-09T09:22:17.169Z,97283.00
2018-12-09T09:24:44.210Z,97288.00
2018-12-09T09:27:11.271Z,97279.00
2018-12-09T09:29:38.259Z,97282.00
2018-12-09T09:32:05.269Z,97279.00
2018-12-09T09:34:32.349Z,97280.00
2018-12-09T09:37:06.311Z,97267.00
2018-12-09T09:39:33.269Z,97266.00
2018-12-09T09:42:00.228Z,97255.00
2018-12-09T09:44:34.172Z,97249.00
2018-12-09T09:47:01.129Z,97247.00
2018-12-09T09:49:35.128Z,97257.00
2018-12-09T09:52:02.109Z,97245.00
2018-12-09T09:54:36.068Z,97244.00
2018-12-09T09:57:03.089Z,97240.00
2018-12-09T09:59:30.109Z,97253.00
2018-12-09T10:01:57.148Z,97260.00
2018-12-09T10:04:31.069Z,97256.00
2018-12-09T10:06:58.029Z,97262.00
2018-12-09T10:09:25.029Z,97260.00
2018-12-09T10:11:58.828Z,97261.00
2018-12-09T10:14:25.810Z,97265.00
2018-12-09T10:16:52.808Z,97267.00
2018-12-09T10:19:19.808Z,97260.00
2018-12-09T10:21:46.790Z,97257.00
2018-12-09T10:24:13.728Z,97259.00
2018-12-09T10:26:41.108Z,97266.00
2018-12-09T10:29:07.969Z,97261.00
2018-12-09T10:31:34.908Z,97257.00
2018-12-09T10:34:01.907Z,97247.00
2018-12-09T10:36:31.629Z,97254.00
2018-12-09T10:38:59.028Z,97259.00
2018-12-09T10:41:26.028Z,97263.00
2018-12-09T10:43:53.007Z,97267.00
2018-12-09T10:46:21.771Z,97274.00
2018-12-09T10:48:49.068Z,97289.00
2018-12-09T10:51:16.208Z,97284.00
2018-12-09T10:53:43.229Z,97295.00
2018-12-09T10:56:10.229Z,97283.00
2018-12-09T10:58:37.409Z,97296.00
2018-12-09T11:01:08.528Z,97293.00
2018-12-09T11:03:35.508Z,97288.00
2018-12-09T11:06:02.549Z,97306.00
2018-12-09T11:08:29.549Z,97306.00
2018-12-09T11:10:56.549Z,97317.00
2018-12-09T11:13:23.969Z,97327.00
2018-12-09T11:15:50.969Z,97342.00
2018-12-09T11:18:18.050Z,97325.00
2018-12-09T11:20:45.090Z,97326.00
2018-12-09T11:23:12.170Z,97335.00
2018-12-09T11:25:39.152Z,97334.00
2018-12-09T11:28:06.062Z,97327.00
2018-12-09T11:30:33.088Z,97331.00
2018-12-09T11:33:00.031Z,97337.00
2018-12-09T11:35:27.089Z,97317.00
2018-12-09T11:37:54.070Z,97322.00
2018-12-09T11:40:21.051Z,97324.00
2018-12-09T11:42:48.051Z,97317.00
2018-12-09T11:45:15.072Z,97311.00
2018-12-09T11:47:42.377Z,97303.00
2018-12-09T11:50:09.619Z,97300.00
2018-12-09T11:52:36.676Z,97292.00
2018-12-09T11:55:04.097Z,97298.00
2018-12-09T11:57:31.077Z,97302.00
2018-12-09T11:59:58.291Z,97295.00
2018-12-09T12:02:25.393Z,97290.00
2018-12-09T12:04:59.111Z,97279.00
2018-12-09T12:07:26.610Z,97270.00
2018-12-09T12:10:00.431Z,97278.00
2018-12-09T12:12:27.431Z,97276.00
2018-12-09T12:14:54.390Z,97267.00
2018-12-09T12:17:21.412Z,97278.00
2018-12-09T12:19:48.384Z,97272.00
2018-12-09T12:22:15.442Z,97258.00
2018-12-09T12:24:49.362Z,97260.00
2018-12-09T12:27:16.382Z,97252.00
2018-12-09T12:29:43.381Z,97241.00
2018-12-09T12:32:17.462Z,97230.00
2018-12-09T12:34:44.421Z,97243.00
2018-12-09T12:37:11.403Z,97219.00
2018-12-09T12:39:38.381Z,97218.00
2018-12-09T12:42:05.401Z,97223.00
2018-12-09T12:44:33.962Z,97224.00
2018-12-09T12:47:07.983Z,97222.00
2018-12-09T12:49:35.033Z,97215.00
2018-12-09T12:52:02.061Z,97220.00
2018-12-09T12:54:29.067Z,97226.00
2018-12-09T12:56:56.642Z,97219.00
2018-12-09T12:59:26.541Z,97212.00
2018-12-09T13:01:53.465Z,97217.00
2018-12-09T13:04:20.521Z,97207.00
2018-12-09T13:06:47.481Z,97207.00
2018-12-09T13:09:14.420Z,97215.00
2018-12-09T13:11:41.421Z,97212.00
2018-12-09T13:14:08.405Z,97217.00
2018-12-09T13:16:35.401Z,97209.00
2018-12-09T13:19:02.380Z,97215.00
2018-12-09T13:21:29.491Z,97212.00
2018-12-09T13:23:56.452Z,97215.00
2018-12-09T13:26:23.499Z,97211.00
2018-12-09T13:28:50.501Z,97211.00
2018-12-09T13:31:17.478Z,97210.00
2018-12-09T13:33:44.628Z,97230.00
2018-12-09T13:36:11.477Z,97235.00
2018-12-09T13:38:38.607Z,97239.00
2018-12-09T13:41:05.435Z,97225.00
2018-12-09T13:46:36.701Z,97224.00
2018-12-09T13:49:03.532Z,97218.00
2018-12-09T13:51:30.755Z,97224.00
2018-12-09T13:53:57.780Z,97207.00
2018-12-09T13:56:24.566Z,97228.00
2018-12-09T13:58:51.588Z,97230.00
2018-12-09T14:01:18.622Z,97234.00
2018-12-09T14:03:45.842Z,97230.00
2018-12-09T14:06:12.761Z,97242.00
2018-12-09T14:08:39.608Z,97258.00
2018-12-09T14:11:06.539Z,97254.00
2018-12-09T14:13:33.465Z,97267.00
2018-12-09T14:16:00.324Z,97273.00
2018-12-09T14:18:27.405Z,97278.00
2018-12-09T14:20:54.385Z,97282.00
2018-12-09T14:23:21.852Z,97292.00
2018-12-09T14:25:48.876Z,97292.00
2018-12-09T14:28:22.856Z,97303.00
2018-12-09T14:30:49.908Z,97312.00
2018-12-09T14:33:16.935Z,97314.00
2018-12-09T14:35:43.888Z,97332.00
2018-12-09T14:38:10.928Z,97340.00
2018-12-09T14:40:38.211Z,97349.00
2018-12-09T14:43:05.249Z,97349.00
2018-12-09T14:45:32.290Z,97344.00
2018-12-09T14:47:59.560Z,97357.00
2018-12-09T14:50:26.561Z,97359.00
2018-12-09T14:52:53.575Z,97354.00
2018-12-09T14:55:20.616Z,97358.00
2018-12-09T14:57:47.655Z,97360.00
2018-12-09T15:00:14.677Z,97364.00
2018-12-09T15:02:41.739Z,97363.00
2018-12-09T15:05:08.936Z,97355.00
2018-12-09T15:07:42.916Z,97361.00
2018-12-09T15:10:10.456Z,97358.00
2018-12-09T15:12:37.616Z,97348.00
2018-12-09T15:15:05.376Z,97345.00
2018-12-09T15:17:32.716Z,97337.00
2018-12-09T15:19:59.675Z,97334.00
2018-12-09T15:22:26.680Z,97335.00
2018-12-09T15:25:00.695Z,97323.00
2018-12-09T15:27:27.676Z,97322.00
2018-12-09T15:29:54.636Z,97324.00
2018-12-09T15:32:21.587Z,97319.00
2018-12-09T15:34:48.648Z,97325.00
2018-12-09T15:37:15.648Z,97323.00
2018-12-09T15:39:42.667Z,97325.00
2018-12-09T15:42:09.563Z,97329.00
2018-12-09T15:44:36.888Z,97327.00
2018-12-09T15:47:03.927Z,97341.00
2018-12-09T15:49:30.948Z,97339.00
2018-12-09T15:51:57.967Z,97333.00
2018-12-09T15:54:25.167Z,97331.00
2018-12-09T15:56:52.187Z,97342.00
2018-12-09T15:59:20.852Z,97355.00
2018-12-09T16:01:48.068Z,97351.00
2018-12-09T16:04:15.306Z,97354.00
2018-12-09T16:06:42.436Z,97354.00
2018-12-09T16:09:09.564Z,97349.00
2018-12-09T16:11:43.618Z,97359.00
2018-12-09T16:14:10.661Z,97357.00
2018-12-09T16:16:37.692Z,97356.00
2018-12-09T16:19:05.057Z,97360.00
2018-12-09T16:21:32.097Z,97363.00
2018-12-09T16:23:59.199Z,97362.00
2018-12-09T16:26:26.358Z,97364.00
2018-12-09T16:28:53.325Z,97359.00
2018-12-09T16:31:20.377Z,97355.00
2018-12-09T16:33:47.276Z,97367.00
2018-12-09T16:36:14.558Z,97367.00
2018-12-09T16:38:41.497Z,97351.00
2018-12-09T16:41:08.717Z,97358.00
2018-12-09T16:43:35.641Z,97352.00
2018-12-09T16:46:02.609Z,97356.00
2018-12-09T16:48:29.799Z,97360.00
2018-12-09T16:53:57.098Z,97354.00
2018-12-09T16:56:24.100Z,97347.00
2018-12-09T16:58:51.080Z,97354.00
2018-12-09T17:01:18.115Z,97356.00
2018-12-09T17:03:45.395Z,97359.00
2018-12-09T17:06:12.394Z,97356.00
2018-12-09T17:08:39.453Z,97357.00
2018-12-09T17:11:06.393Z,97366.00
2018-12-09T17:13:33.394Z,97364.00
2018-12-09T17:16:00.332Z,97358.00
2018-12-09T17:18:27.575Z,97362.00
2018-12-09T17:20:54.633Z,97363.00
2018-12-09T17:26:17.077Z,97359.00
2018-12-09T17:28:44.054Z,97362.00
2018-12-09T17:31:18.174Z,97366.00
2018-12-09T17:33:45.155Z,97368.00
2018-12-09T17:36:12.194Z,97357.00
2018-12-09T17:38:39.173Z,97367.00
2018-12-09T17:41:06.275Z,97379.00
2018-12-09T17:43:33.715Z,97374.00
2018-12-09T17:46:01.213Z,97359.00
2018-12-09T17:48:28.234Z,97379.00
2018-12-09T17:50:55.277Z,97375.00
2018-12-09T17:53:22.271Z,97380.00
2018-12-09T17:55:49.255Z,97390.00
2018-12-09T17:58:16.235Z,97388.00
2018-12-09T18:00:43.295Z,97383.00
2018-12-09T18:03:10.236Z,97387.00
2018-12-09T18:05:37.298Z,97391.00
2018-12-09T18:08:04.456Z,97389.00
2018-12-09T18:10:31.436Z,97388.00
2018-12-09T18:12:58.415Z,97381.00
2018-12-09T18:15:25.615Z,97387.00
2018-12-09T18:17:52.543Z,97394.00
2018-12-09T18:20:19.496Z,97390.00
2018-12-09T18:22:46.456Z,97400.00
2018-12-09T18:25:13.497Z,97402.00
2018-12-09T18:27:40.615Z,97404.00
2018-12-09T18:30:07.696Z,97407.00
2018-12-09T18:32:35.236Z,97411.00
2018-12-09T18:35:02.234Z,97416.00
2018-12-09T18:37:29.236Z,97422.00
2018-12-09T18:39:57.236Z,97427.00
2018-12-09T18:42:24.235Z,97428.00
2018-12-09T18:44:51.043Z,97425.00
2018-12-09T18:47:17.997Z,97431.00
2018-12-09T18:49:44.923Z,97437.00
2018-12-09T18:52:11.915Z,97437.00
2018-12-09T18:54:39.138Z,97434.00
2018-12-09T18:57:06.204Z,97441.00
2018-12-09T18:59:34.969Z,97441.00
2018-12-09T19:02:02.255Z,97430.00
2018-12-09T19:04:29.317Z,97455.00
2018-12-09T19:06:56.556Z,97445.00
2018-12-09T19:09:23.625Z,97461.00
2018-12-09T19:11:50.776Z,97450.00
2018-12-09T19:14:17.876Z,97461.00
2018-12-09T19:16:45.376Z,97461.00
2018-12-09T19:19:12.374Z,97463.00
2018-12-09T19:21:39.375Z,97463.00
2018-12-09T19:24:06.395Z,97469.00
2018-12-09T19:26:33.416Z,97460.00
2018-12-09T19:29:00.457Z,97467.00
2018-12-09T19:31:27.516Z,97467.00
2018-12-09T19:33:54.736Z,97459.00
2018-12-09T19:36:21.715Z,97471.00
2018-12-09T19:38:48.855Z,97480.00
2018-12-09T19:41:20.263Z,97474.00
2018-12-09T19:43:47.540Z,97468.00
2018-12-09T19:46:14.539Z,97482.00
2018-12-09T19:48:41.579Z,97489.00
2018-12-09T19:51:08.621Z,97472.00
2018-12-09T19:53:35.612Z,97502.00
2018-12-09T19:56:04.411Z,97504.00
2018-12-09T19:58:32.100Z,97513.00
2018-12-09T20:00:59.101Z,97514.00
2018-12-09T20:03:26.019Z,97515.00
2018-12-09T20:05:53.243Z,97513.00
2018-12-09T20:08:20.238Z,97518.00
2018-12-09T20:10:47.223Z,97528.00
2018-12-09T20:13:14.379Z,97534.00
2018-12-09T20:15:41.402Z,97533.00
2018-12-09T20:18:08.401Z,97543.00
2018-12-09T20:20:35.382Z,97545.00
2018-12-09T20:23:02.422Z,97547.00
2018-12-09T20:25:29.494Z,97554.00
2018-12-09T20:27:56.464Z,97556.00
2018-12-09T20:30:23.534Z,97562.00
2018-12-09T20:32:57.513Z,97569.00
2018-12-09T20:35:24.621Z,97570.00
2018-12-09T20:37:51.615Z,97581.00
2018-12-09T20:40:18.657Z,97581.00
2018-12-09T20:42:48.269Z,97592.00
2018-12-09T20:45:14.917Z,97594.00
2018-12-09T20:47:42.254Z,97598.00
2018-12-09T20:50:09.293Z,97598.00
2018-12-09T20:52:36.435Z,97602.00
2018-12-09T20:55:06.073Z,97618.00
2018-12-09T20:57:33.054Z,97612.00
2018-12-09T21:00:00.093Z,97613.00
2018-12-09T21:02:27.075Z,97629.00
2018-12-09T21:04:54.553Z,97615.00
2018-12-09T21:07:21.704Z,97623.00
2018-12-09T21:09:48.734Z,97619.00
2018-12-09T21:12:15.933Z,97627.00
2018-12-09T21:14:42.936Z,97646.00
2018-12-09T21:17:10.033Z,97627.00
2018-12-09T21:19:36.942Z,97647.00
2018-12-09T21:22:03.892Z,97643.00
2018-12-09T21:24:31.357Z,97653.00
2018-12-09T21:26:58.374Z,97650.00
2018-12-09T21:29:25.595Z,97656.00
2018-12-09T21:31:52.553Z,97654.00
2018-12-09T21:34:20.313Z,97659.00
2018-12-09T21:36:47.293Z,97660.00
2018-12-09T21:39:14.212Z,97667.00
2018-12-09T21:41:41.233Z,97670.00
2018-12-09T21:44:08.353Z,97674.00
2018-12-09T21:46:35.393Z,97681.00
2018-12-09T21:49:02.452Z,97684.00
2018-12-09T21:51:29.513Z,97690.00
2018-12-09T21:53:56.552Z,97693.00
2018-12-09T21:56:23.632Z,97710.00
2018-12-09T21:58:50.592Z,97713.00
2018-12-09T22:01:17.613Z,97721.00
2018-12-09T22:03:44.612Z,97725.00
2018-12-09T22:06:11.733Z,97730.00
2018-12-09T22:08:38.773Z,97731.00
2018-12-09T22:11:05.774Z,97732.00
2018-12-09T22:13:32.833Z,97747.00
2018-12-09T22:15:59.812Z,97752.00
2018-12-09T22:18:34.094Z,97747.00
2018-12-09T22:21:01.093Z,97742.00
2018-12-09T22:23:28.173Z,97753.00
2018-12-09T22:25:55.273Z,97750.00
2018-12-09T22:28:29.733Z,97771.00
2018-12-09T22:30:56.733Z,97770.00
2018-12-09T22:33:30.634Z,97770.00
2018-12-09T22:35:57.654Z,97779.00
2018-12-09T22:38:24.814Z,97787.00
2018-12-09T22:40:52.534Z,97804.00
2018-12-09T22:43:19.562Z,97805.00
2018-12-09T22:45:46.593Z,97815.00
2018-12-09T22:48:13.553Z,97823.00
2018-12-09T22:50:40.514Z,97820.00
2018-12-09T22:53:07.554Z,97824.00
2018-12-09T22:55:34.573Z,97820.00
2018-12-09T22:58:01.593Z,97824.00
2018-12-09T23:00:28.975Z,97826.00
2018-12-09T23:03:01.894Z,97830.00
2018-12-09T23:05:28.873Z,97833.00
2018-12-09T23:07:55.932Z,97836.00
2018-12-09T23:10:22.954Z,97835.00
2018-12-09T23:12:50.054Z,97828.00
2018-12-09T23:15:17.053Z,97842.00
2018-12-09T23:17:44.133Z,97834.00
2018-12-09T23:20:11.133Z,97840.00
2018-12-09T23:22:38.114Z,97845.00
2018-12-09T23:25:05.213Z,97841.00
2018-12-09T23:27:32.174Z,97851.00
2018-12-09T23:29:59.254Z,97852.00
2018-12-09T23:32:26.313Z,97858.00
2018-12-09T23:34:53.373Z,97863.00
2018-12-09T23:37:20.383Z,97867.00
2018-12-09T23:39:47.653Z,97862.00
2018-12-09T23:42:14.633Z,97857.00
2018-12-09T23:44:41.675Z,97864.00
2018-12-09T23:47:08.673Z,97854.00
2018-12-09T23:49:35.713Z,97854.00
2018-12-09T23:52:02.714Z,97851.00
2018-12-09T23:54:29.672Z,97862.00
2018-12-09T23:56:56.713Z,97861.00
2018-12-09T23:59:23.696Z,97857.00
